createdAt,value
2022-11-14T00:00:25.575Z,85.59
2022-11-14T00:05:46.701Z,85.89
2022-11-14T00:11:11.040Z,85.76
2022-11-14T00:16:31.392Z,85.32
2022-11-14T00:21:53.247Z,85.45
2022-11-14T00:27:13.715Z,86.19
2022-11-14T00:32:34.305Z,86.45
2022-11-14T00:37:54.902Z,86.36
2022-11-14T00:43:34.509Z,86.92
2022-11-14T00:49:24.878Z,87.54
2022-11-14T00:54:47.022Z,87.40
2022-11-14T01:01:04.922Z,86.81
2022-11-14T01:06:26.549Z,87.04
2022-11-14T01:11:47.018Z,87.11
2022-11-14T01:17:08.049Z,87.39
2022-11-14T01:22:29.896Z,87.18
2022-11-14T01:28:08.694Z,87.01
2022-11-14T01:33:44.923Z,86.09
2022-11-14T01:39:05.028Z,85.48
2022-11-14T01:44:44.566Z,85.45
2022-11-14T01:50:16.452Z,85.71
2022-11-14T01:55:38.107Z,86.20
2022-11-14T02:00:59.414Z,86.15
2022-11-14T02:06:22.619Z,86.53
2022-11-14T02:11:46.326Z,86.34
2022-11-14T02:17:28.403Z,86.30
2022-11-14T02:22:47.014Z,85.95
2022-11-14T02:28:09.549Z,86.07
2022-11-14T02:33:29.845Z,85.15
2022-11-14T02:38:50.286Z,85.01
2022-11-14T02:44:10.458Z,85.36
2022-11-14T02:49:30.442Z,85.71
2022-11-14T02:54:54.458Z,85.89
2022-11-14T03:00:15.585Z,85.36
2022-11-14T03:05:35.784Z,85.87
2022-11-14T03:10:56.136Z,85.87
2022-11-14T03:16:16.420Z,87.04
2022-11-14T03:21:36.821Z,87.18
2022-11-14T03:26:57.361Z,87.61
2022-11-14T03:32:18.063Z,88.77
2022-11-14T03:37:38.186Z,88.26
2022-11-14T03:42:58.284Z,88.07
2022-11-14T03:48:20.706Z,88.57
2022-11-14T03:53:41.138Z,89.07
2022-11-14T03:59:01.785Z,88.85
2022-11-14T04:04:22.249Z,89.13
2022-11-14T04:09:44.926Z,88.74
2022-11-14T04:15:05.714Z,89.46
2022-11-14T04:20:26.014Z,89.69
2022-11-14T04:25:46.521Z,89.27
2022-11-14T04:31:06.931Z,88.87
2022-11-14T04:36:27.184Z,89.32
2022-11-14T04:41:47.055Z,89.19
2022-11-14T04:47:07.054Z,89.48
2022-11-14T04:52:27.081Z,89.29
2022-11-14T04:57:47.120Z,89.00
2022-11-14T05:03:07.228Z,88.81
2022-11-14T05:08:27.908Z,89.80
2022-11-14T05:13:48.363Z,88.75
2022-11-14T05:19:08.698Z,88.55
2022-11-14T05:24:28.800Z,87.60
2022-11-14T05:29:49.077Z,87.48
2022-11-14T05:35:09.601Z,87.73
2022-11-14T05:40:29.871Z,87.76
2022-11-14T05:45:50.422Z,86.91
2022-11-14T05:51:11.540Z,87.00
2022-11-14T05:56:31.884Z,86.72
2022-11-14T06:01:52.119Z,86.28
2022-11-14T06:07:16.237Z,86.55
2022-11-14T06:12:39.147Z,86.45
2022-11-14T06:17:59.616Z,86.50
2022-11-14T06:23:24.627Z,85.54
2022-11-14T06:28:47.447Z,84.83
2022-11-14T06:34:07.667Z,84.89
2022-11-14T06:39:28.759Z,85.04
2022-11-14T06:44:51.980Z,84.20
2022-11-14T06:50:16.292Z,83.68
2022-11-14T06:55:36.615Z,82.82
2022-11-14T07:00:56.758Z,82.62
2022-11-14T07:06:18.624Z,83.24
2022-11-14T07:11:49.165Z,82.72
2022-11-14T07:17:09.143Z,82.79
2022-11-14T07:22:29.061Z,82.72
2022-11-14T07:27:54.141Z,82.33
2022-11-14T07:33:22.226Z,82.39
2022-11-14T07:38:42.696Z,81.61
2022-11-14T07:44:03.026Z,81.53
2022-11-14T07:49:24.210Z,82.04
2022-11-14T07:54:44.273Z,82.41
2022-11-14T08:00:04.323Z,82.73
2022-11-14T08:05:25.169Z,83.23
2022-11-14T08:10:45.315Z,82.73
2022-11-14T08:16:11.938Z,82.11
2022-11-14T08:21:32.852Z,82.53
2022-11-14T08:26:52.824Z,82.56
2022-11-14T08:32:13.398Z,83.81
2022-11-14T08:37:33.666Z,83.83
2022-11-14T08:42:58.772Z,83.60
2022-11-14T08:48:18.827Z,83.88
2022-11-14T08:53:38.705Z,84.09
2022-11-14T08:58:58.678Z,84.55
2022-11-14T09:04:19.009Z,84.44
2022-11-14T09:09:39.442Z,84.67
2022-11-14T09:15:00.027Z,84.22
2022-11-14T09:20:20.499Z,84.84
2022-11-14T09:25:40.577Z,84.53
2022-11-14T09:31:04.516Z,84.64
2022-11-14T09:36:24.449Z,84.74
2022-11-14T09:41:44.670Z,84.27
2022-11-14T09:47:07.851Z,84.63
2022-11-14T09:52:37.023Z,84.29
2022-11-14T09:57:57.475Z,85.27
2022-11-14T10:03:20.666Z,84.93
2022-11-14T10:08:43.985Z,84.51
2022-11-14T10:14:16.224Z,84.35
2022-11-14T10:19:48.463Z,83.97
2022-11-14T10:25:27.614Z,83.57
2022-11-14T10:30:55.809Z,84.00
2022-11-14T10:36:20.340Z,83.81
2022-11-14T10:41:57.168Z,84.05
2022-11-14T10:47:22.551Z,83.66
2022-11-14T10:52:44.201Z,83.50
2022-11-14T10:58:13.196Z,83.58
2022-11-14T11:03:43.816Z,83.46
2022-11-14T11:09:33.003Z,82.91
2022-11-14T11:15:08.598Z,83.02
2022-11-14T11:20:39.044Z,81.75
2022-11-14T11:26:18.992Z,81.95
2022-11-14T11:31:52.810Z,81.23
2022-11-14T11:37:16.065Z,80.92
2022-11-14T11:48:32.890Z,81.17
2022-11-14T11:53:55.964Z,81.58
2022-11-14T11:59:33.841Z,80.62
2022-11-14T12:04:56.155Z,80.60
2022-11-14T12:10:20.449Z,80.89
2022-11-14T12:16:16.325Z,81.25
2022-11-14T12:21:41.564Z,81.41
2022-11-14T12:27:20.590Z,81.51
2022-11-14T12:32:40.973Z,81.36
2022-11-14T12:38:03.150Z,79.98
2022-11-14T12:43:36.442Z,78.94
2022-11-14T12:48:57.584Z,79.04
2022-11-14T12:54:36.345Z,78.61
2022-11-14T13:00:01.337Z,78.78
2022-11-14T13:05:24.390Z,79.47
2022-11-14T13:10:44.328Z,79.79
2022-11-14T13:16:23.317Z,79.88
2022-11-14T13:22:03.629Z,79.87
2022-11-14T13:33:41.484Z,80.15
2022-11-14T13:39:20.751Z,80.74
2022-11-14T13:44:44.139Z,79.45
2022-11-14T13:50:08.955Z,80.38
2022-11-14T13:55:37.753Z,79.25
2022-11-14T14:01:05.573Z,79.93
2022-11-14T14:06:45.727Z,80.60
2022-11-14T14:12:22.419Z,80.21
2022-11-14T14:17:43.374Z,81.40
2022-11-14T14:23:12.765Z,81.93
2022-11-14T14:28:53.413Z,82.22
2022-11-14T14:34:24.106Z,82.73
2022-11-14T14:39:55.651Z,83.78
2022-11-14T14:45:20.404Z,84.05
2022-11-14T14:50:41.844Z,84.38
2022-11-14T14:56:03.061Z,84.94
2022-11-14T15:01:34.323Z,85.46
2022-11-14T15:06:58.399Z,86.25
2022-11-14T15:12:18.753Z,87.21
2022-11-14T15:17:39.170Z,87.88
2022-11-14T15:23:19.255Z,88.37
2022-11-14T15:28:39.406Z,89.35
2022-11-14T15:34:07.295Z,89.04
2022-11-14T15:39:28.423Z,88.76
2022-11-14T15:44:49.156Z,88.52
2022-11-14T15:50:12.386Z,88.87
2022-11-14T15:55:34.699Z,88.30
2022-11-14T16:00:55.151Z,88.16
2022-11-14T16:06:17.089Z,88.48
2022-11-14T16:11:37.585Z,88.18
2022-11-14T16:16:57.538Z,88.17
2022-11-14T16:22:17.842Z,88.03
2022-11-14T16:27:37.798Z,88.43
2022-11-14T16:32:58.586Z,88.30
2022-11-14T16:38:18.809Z,88.55
2022-11-14T16:43:39.173Z,89.30
2022-11-14T16:49:02.627Z,89.61
2022-11-14T16:54:22.680Z,89.66
2022-11-14T16:59:49.376Z,90.01
2022-11-14T17:05:09.997Z,89.51
2022-11-14T17:10:30.177Z,89.13
2022-11-14T17:16:00.461Z,89.08
2022-11-14T17:21:20.921Z,89.80
2022-11-14T17:26:44.447Z,90.05
2022-11-14T17:32:05.057Z,91.08
2022-11-14T17:37:27.637Z,91.15
2022-11-14T17:42:47.604Z,91.19
2022-11-14T17:48:07.809Z,90.76
2022-11-14T17:53:29.225Z,91.31
2022-11-14T17:58:51.260Z,91.24
2022-11-14T18:04:11.684Z,91.39
2022-11-14T18:09:32.204Z,91.25
2022-11-14T18:14:53.372Z,91.34
2022-11-14T18:20:14.307Z,91.72
2022-11-14T18:25:34.823Z,91.56
2022-11-14T18:30:59.004Z,91.70
2022-11-14T18:36:20.488Z,92.19
2022-11-14T18:41:50.044Z,92.11
2022-11-14T18:47:13.707Z,91.73
2022-11-14T18:52:38.464Z,92.05
2022-11-14T18:57:59.072Z,92.34
2022-11-14T19:03:29.556Z,92.48
2022-11-14T19:08:50.174Z,92.67
2022-11-14T19:14:11.193Z,92.76
2022-11-14T19:19:42.435Z,93.08
2022-11-14T19:25:06.344Z,93.04
2022-11-14T19:30:31.222Z,93.00
2022-11-14T19:35:55.789Z,93.54
2022-11-14T19:41:18.035Z,93.89
2022-11-14T19:46:42.919Z,93.16
2022-11-14T19:52:06.486Z,92.81
2022-11-14T19:57:32.591Z,93.20
2022-11-14T20:02:53.398Z,93.51
2022-11-14T20:08:14.152Z,93.66
2022-11-14T20:13:36.403Z,93.88
2022-11-14T20:19:01.247Z,94.61
2022-11-14T20:24:26.045Z,95.17
2022-11-14T20:29:51.515Z,95.27
2022-11-14T20:35:15.656Z,96.01
2022-11-14T20:40:37.761Z,97.23
2022-11-14T20:46:07.225Z,97.25
2022-11-14T20:51:29.080Z,97.76
2022-11-14T20:57:01.492Z,98.46
2022-11-14T21:02:38.686Z,97.50
2022-11-14T21:07:58.998Z,97.32
2022-11-14T21:13:55.179Z,97.48
2022-11-14T21:19:22.206Z,96.98
2022-11-14T21:24:45.901Z,98.47
2022-11-14T21:30:08.150Z,98.74
2022-11-14T21:41:41.463Z,98.74
2022-11-14T21:47:04.565Z,98.68
2022-11-14T21:52:25.866Z,98.58
2022-11-14T21:57:46.149Z,98.06
2022-11-14T22:03:25.994Z,97.49
2022-11-14T22:08:56.437Z,97.38
2022-11-14T22:14:31.104Z,97.36
2022-11-14T22:19:51.754Z,97.28
2022-11-14T22:25:12.359Z,97.91
2022-11-14T22:30:33.916Z,97.00
2022-11-14T22:35:54.275Z,97.85
2022-11-14T22:41:19.216Z,96.96
2022-11-14T22:46:39.639Z,97.23
2022-11-14T22:51:59.846Z,97.57
2022-11-14T22:57:20.153Z,97.64
2022-11-14T23:02:40.795Z,98.91
2022-11-14T23:08:02.405Z,99.16
2022-11-14T23:13:22.578Z,99.51
2022-11-14T23:18:42.889Z,100.00
2022-11-14T23:24:05.157Z,100.00
2022-11-14T23:29:25.335Z,100.00
2022-11-14T23:34:45.478Z,100.00
2022-11-14T23:40:05.864Z,100.00
2022-11-14T23:45:25.883Z,100.00
2022-11-14T23:50:49.312Z,100.00
2022-11-14T23:56:11.065Z,100.00
